Estación de Nogales

Ultimos registro cada 15 minutos 76
Estación Fecha / Hora Temperatura Humedad Lluvia Velocidad Dirección Radiación Presion
76 Nogales 05-05-2026 18:45 13,5 82,2 0 0,7 206 0,6 984,4
75 Nogales 05-05-2026 18:30 13,9 78 0 0 185 0,6 984,3
74 Nogales 05-05-2026 18:15 14,5 76 0 0 185 0,6 984,3
73 Nogales 05-05-2026 18:00 14,5 76,5 0 1,3 195 6,9 984,3
72 Nogales 05-05-2026 17:45 15 75,7 0 3 197 14,4 984,2
71 Nogales 05-05-2026 17:30 15,6 72,6 0 3 202 24,4 984
70 Nogales 05-05-2026 17:15 18,2 63,3 0 2,3 250 121,9 983,4
69 Nogales 05-05-2026 17:00 19,2 60,8 0 2 272 170,6 982,8
68 Nogales 05-05-2026 16:45 19,9 59,2 0 1,3 312 224,4 982,7
67 Nogales 05-05-2026 16:30 20,3 58,8 0 3 209 268,1 982,4
66 Nogales 05-05-2026 16:15 20,7 58,2 0 3 201 346,9 982
65 Nogales 05-05-2026 16:00 20,4 58,5 0 2,3 183 366,9 982
64 Nogales 05-05-2026 15:45 20,7 55,2 0 2,3 236 135,6 982
63 Nogales 05-05-2026 15:30 21,5 53,6 0 2,3 240 384,4 982,1
62 Nogales 05-05-2026 15:15 22,3 51,6 0 2,3 254 526,9 982
61 Nogales 05-05-2026 15:00 23 49,2 0 2,3 261 556,9 981,9
60 Nogales 05-05-2026 14:45 23 49,6 0 2,7 197 578,1 981,8
59 Nogales 05-05-2026 14:30 23,4 47 0 2,7 192 629,4 981,7
58 Nogales 05-05-2026 14:15 23,8 46,5 0 2 251 638,1 981,7
57 Nogales 05-05-2026 14:00 0 0 0 2,3 274 644,4 981,9
56 Nogales 05-05-2026 13:45 22,8 47,6 0 2,3 299 606,9 981,8
55 Nogales 05-05-2026 13:30 22,9 47,3 0 2,7 306 663,1 981,9
54 Nogales 05-05-2026 13:15 22,3 48 0 3 307 683,1 981,8
53 Nogales 05-05-2026 13:00 22,3 46,4 0 2,7 303 679,4 981,8
52 Nogales 05-05-2026 12:45 23,5 43,3 0 2 302 729,4 981,5
51 Nogales 05-05-2026 12:30 23,4 43,2 0 1,7 296 283,1 981,6
50 Nogales 05-05-2026 12:15 23,5 41,6 0 2 306 719,4 981,7
49 Nogales 05-05-2026 12:00 23,3 43,2 0 2 299 715,6 981,8
48 Nogales 05-05-2026 11:45 23,8 42,9 0 0,3 316 724,4 981,9
47 Nogales 05-05-2026 11:30 24,4 42,7 0 0,3 63 764,4 982,1
46 Nogales 05-05-2026 11:15 23,6 43,8 0 0,3 181 716,9 982,5
45 Nogales 05-05-2026 11:00 21,7 46,6 0 0,3 180 696,9 982,7
44 Nogales 05-05-2026 10:45 20,6 47,5 0 1 188 670,6 982,6
43 Nogales 05-05-2026 10:30 20 51 0 0 139 590,6 982,6
42 Nogales 05-05-2026 10:15 20,1 48,4 0 0 18 144,4 982,6
41 Nogales 05-05-2026 10:00 18,1 51,6 0 0 0 556,9 982,9
40 Nogales 05-05-2026 09:45 17,3 55,1 0 0 0 300,6 983,1
39 Nogales 05-05-2026 09:30 15,8 58,2 0 0 0 370,6 983,4
38 Nogales 05-05-2026 09:15 14,4 65,9 0 0 0 325,6 983,6
37 Nogales 05-05-2026 09:00 12,3 71,4 0 0 0 278,1 983,9
36 Nogales 05-05-2026 08:45 9,2 82,3 0 0 0 229,4 984
35 Nogales 05-05-2026 08:30 6,8 82,5 0 0 0 29,4 984
34 Nogales 05-05-2026 08:15 7 81,7 0 0 0 19,4 984,1
33 Nogales 05-05-2026 08:00 6,8 84,5 0 0,3 358 15,6 984,1
32 Nogales 05-05-2026 07:45 5,6 84,1 0 0 358 9,4 984,1
31 Nogales 05-05-2026 07:30 5,8 84,1 0 0 358 3,1 983,8
30 Nogales 05-05-2026 07:15 5,6 84,9 0 0 358 0,6 983,7
29 Nogales 05-05-2026 07:00 5,3 83,1 0 0 358 0,6 983,7
28 Nogales 05-05-2026 06:45 5,5 82,2 0 0 358 0,6 983,6
27 Nogales 05-05-2026 06:30 6,1 81,5 0 0 358 0,6 983,5
26 Nogales 05-05-2026 06:15 6,3 81,6 0 0 358 0,6 983,3
25 Nogales 05-05-2026 06:00 7,6 80,7 0 0 358 0,6 983,2
24 Nogales 05-05-2026 05:45 6,7 81 0 0 358 0,6 983,2
23 Nogales 05-05-2026 05:30 6,4 79,5 0 0 358 0,6 983,2
22 Nogales 05-05-2026 05:15 6,8 80 0 0,3 358 0,6 983,1
21 Nogales 05-05-2026 05:00 6,5 79 0 0 358 0,6 983,1
20 Nogales 05-05-2026 04:45 6,5 80,3 0 0 358 0,6 983,2
19 Nogales 05-05-2026 04:30 6,4 79,7 0 0 358 0,6 983,1
18 Nogales 05-05-2026 04:15 6,7 79,7 0 0,3 334 0,6 982,9
17 Nogales 05-05-2026 04:00 5,6 80,1 0 0,3 263 0,6 982,9
16 Nogales 05-05-2026 03:45 5,4 78,7 0 0 261 0,6 983
15 Nogales 05-05-2026 03:30 5,3 79,6 0 0 254 0,6 983
14 Nogales 05-05-2026 03:15 5,2 77,8 0 0 248 0,6 983
13 Nogales 05-05-2026 03:00 5,3 77,3 0 0 248 0,6 983,1
12 Nogales 05-05-2026 02:45 5,9 77,7 0 0 248 0,6 983,1
11 Nogales 05-05-2026 02:30 6,1 76,4 0 0 248 0,6 983,5
10 Nogales 05-05-2026 02:15 6,3 75,8 0 0 248 0,6 983,7
9 Nogales 05-05-2026 02:00 6,1 75,2 0 0 248 0,6 983,6
8 Nogales 05-05-2026 01:45 6,4 75 0 0 248 0,6 983,6
7 Nogales 05-05-2026 01:30 6,7 73,7 0 0 248 0,6 983,8
6 Nogales 05-05-2026 01:15 6,8 73 0 0 248 0,6 984,1
5 Nogales 05-05-2026 01:00 7,7 71,2 0 0 248 0,6 984,2
4 Nogales 05-05-2026 00:45 8 71,6 0 0 248 0,6 984,1
3 Nogales 05-05-2026 00:30 7,8 71,4 0 0 248 0,6 984,2
2 Nogales 05-05-2026 00:15 7,8 71,6 0 0 248 0,6 984,2
1 Nogales 05-05-2026 00:00 8 70,1 0 0 248 0,6 984,1